createdAt,value
2023-05-05T00:00:37.743Z,4.32
2023-05-05T00:01:40.172Z,5.18
2023-05-05T00:02:42.609Z,4.95
2023-05-05T00:03:44.969Z,4.72
2023-05-05T00:04:47.361Z,4.38
2023-05-05T00:05:50.442Z,4.18
2023-05-05T00:06:53.227Z,4.20
2023-05-05T00:07:55.451Z,5.03
2023-05-05T00:08:57.845Z,4.53
2023-05-05T00:10:00.048Z,4.72
2023-05-05T00:11:02.309Z,5.03
2023-05-05T00:12:05.146Z,4.78
2023-05-05T00:13:07.561Z,4.78
2023-05-05T00:14:09.782Z,4.50
2023-05-05T00:15:12.279Z,5.03
2023-05-05T00:16:14.993Z,4.60
2023-05-05T00:17:17.554Z,4.20
2023-05-05T00:18:20.912Z,4.65
2023-05-05T00:19:23.106Z,4.90
2023-05-05T00:20:25.545Z,4.80
2023-05-05T00:21:27.906Z,4.43
2023-05-05T00:22:30.396Z,5.30
2023-05-05T00:23:32.972Z,4.78
2023-05-05T00:24:36.024Z,4.95
2023-05-05T00:25:38.587Z,4.82
2023-05-05T00:26:41.040Z,4.95
2023-05-05T00:27:43.254Z,5.57
2023-05-05T00:28:45.933Z,5.35
2023-05-05T00:29:48.172Z,5.60
2023-05-05T00:30:50.495Z,4.93
2023-05-05T00:31:52.953Z,5.53
2023-05-05T00:32:55.663Z,5.65
2023-05-05T00:33:58.080Z,5.30
2023-05-05T00:35:00.345Z,6.03
2023-05-05T00:36:02.764Z,5.85
2023-05-05T00:37:05.065Z,5.78
2023-05-05T00:38:07.432Z,5.90
2023-05-05T00:39:10.211Z,5.25
2023-05-05T00:40:13.297Z,5.88
2023-05-05T00:41:15.527Z,5.70
2023-05-05T00:42:17.929Z,5.72
2023-05-05T00:43:21.333Z,5.35
2023-05-05T00:44:39.792Z,5.45
2023-05-05T00:45:44.320Z,5.82
2023-05-05T00:46:46.729Z,5.47
2023-05-05T00:47:53.614Z,5.68
2023-05-05T00:48:56.584Z,5.95
2023-05-05T00:49:59.024Z,5.72
2023-05-05T00:51:01.498Z,5.43
2023-05-05T00:52:05.178Z,5.75
2023-05-05T00:53:07.427Z,6.20
2023-05-05T00:54:09.679Z,6.13
2023-05-05T00:55:12.177Z,5.85
2023-05-05T00:56:16.828Z,5.53
2023-05-05T00:57:20.606Z,5.60
2023-05-05T00:58:23.116Z,6.20
2023-05-05T00:59:27.476Z,6.05
2023-05-05T01:00:34.285Z,5.53
2023-05-05T01:01:36.614Z,5.70
2023-05-05T01:02:40.275Z,6.25
2023-05-05T01:03:42.658Z,5.63
2023-05-05T01:04:45.017Z,6.00
2023-05-05T01:06:17.990Z,5.93
2023-05-05T01:07:37.756Z,5.70
2023-05-05T01:09:05.457Z,5.13
2023-05-05T01:10:20.759Z,5.63
2023-05-05T01:11:29.464Z,5.57
2023-05-05T01:12:52.163Z,5.55
2023-05-05T01:14:14.523Z,5.38
2023-05-05T01:15:32.626Z,5.43
2023-05-05T01:16:38.707Z,5.80
2023-05-05T01:17:53.232Z,5.20
2023-05-05T01:19:29.401Z,5.50
2023-05-05T01:20:55.688Z,6.43
2023-05-05T01:22:02.273Z,5.75
2023-05-05T01:23:09.300Z,5.47
2023-05-05T01:24:37.275Z,5.78
2023-05-05T01:26:05.743Z,5.80
2023-05-05T01:27:17.176Z,6.05
2023-05-05T01:28:54.476Z,5.20
2023-05-05T01:30:28.142Z,5.45
2023-05-05T01:31:39.797Z,5.15
2023-05-05T01:32:48.049Z,5.93
2023-05-05T01:33:59.028Z,6.10
2023-05-05T01:36:15.665Z,5.47
2023-05-05T01:37:30.339Z,5.40
2023-05-05T01:38:38.122Z,6.38
2023-05-05T01:39:43.456Z,6.38
2023-05-05T01:40:50.993Z,6.25
2023-05-05T01:41:58.932Z,5.97
2023-05-05T01:43:03.854Z,5.40
2023-05-05T01:44:08.121Z,6.65
2023-05-05T01:45:13.753Z,6.22
2023-05-05T01:46:17.821Z,5.88
2023-05-05T01:47:23.472Z,6.45
2023-05-05T01:48:29.919Z,5.68
2023-05-05T01:49:34.373Z,6.35
2023-05-05T01:50:37.472Z,6.75
2023-05-05T01:51:40.957Z,6.40
2023-05-05T01:52:45.061Z,6.28
2023-05-05T01:53:48.150Z,5.82
2023-05-05T01:54:52.823Z,6.25
2023-05-05T01:55:58.348Z,6.78
2023-05-05T01:57:04.882Z,5.95
2023-05-05T01:58:08.257Z,6.75
2023-05-05T01:59:11.633Z,6.20
2023-05-05T02:00:16.588Z,7.05
2023-05-05T02:01:24.161Z,6.50
2023-05-05T02:02:28.608Z,6.07
2023-05-05T02:03:32.224Z,6.25
2023-05-05T02:04:37.094Z,5.93
2023-05-05T02:05:40.666Z,5.72
2023-05-05T02:06:44.380Z,5.53
2023-05-05T02:07:46.991Z,5.78
2023-05-05T02:08:51.295Z,6.32
2023-05-05T02:09:54.377Z,5.28
2023-05-05T02:10:57.820Z,6.35
2023-05-05T02:12:02.431Z,6.57
2023-05-05T02:13:05.504Z,6.43
2023-05-05T02:14:10.723Z,6.18
2023-05-05T02:15:15.337Z,6.07
2023-05-05T02:16:19.953Z,5.65
2023-05-05T02:17:23.947Z,5.63
2023-05-05T02:18:28.474Z,5.72
2023-05-05T02:19:36.348Z,6.72
2023-05-05T02:20:40.035Z,5.97
2023-05-05T02:21:42.676Z,6.03
2023-05-05T02:22:45.202Z,6.03
2023-05-05T02:23:51.761Z,6.65
2023-05-05T02:24:54.629Z,6.28
2023-05-05T02:26:09.183Z,5.85
2023-05-05T02:27:12.326Z,6.15
2023-05-05T02:28:22.515Z,5.93
2023-05-05T02:29:32.814Z,6.07
2023-05-05T02:30:36.570Z,6.32
2023-05-05T02:31:44.258Z,6.45
2023-05-05T02:32:53.959Z,6.30
2023-05-05T02:33:58.486Z,6.00
2023-05-05T02:35:17.442Z,6.50
2023-05-05T02:36:26.030Z,6.13
2023-05-05T02:37:34.125Z,6.13
2023-05-05T02:38:41.559Z,6.13
2023-05-05T02:39:51.785Z,5.72
2023-05-05T02:40:58.037Z,6.40
2023-05-05T02:42:05.832Z,5.93
2023-05-05T02:43:11.510Z,5.75
2023-05-05T02:44:15.592Z,6.43
2023-05-05T02:45:22.386Z,5.60
2023-05-05T02:46:26.035Z,5.88
2023-05-05T02:47:35.999Z,6.10
2023-05-05T02:48:38.474Z,6.07
2023-05-05T02:49:41.022Z,6.40
2023-05-05T02:50:43.957Z,5.80
2023-05-05T02:52:02.186Z,5.78
2023-05-05T02:53:09.123Z,5.50
2023-05-05T02:54:11.483Z,5.95
2023-05-05T02:55:15.036Z,6.03
2023-05-05T02:56:27.037Z,6.00
2023-05-05T02:58:04.794Z,6.35
2023-05-05T02:59:16.287Z,6.30
2023-05-05T03:01:37.226Z,5.82
2023-05-05T03:03:05.811Z,5.95
2023-05-05T03:04:16.338Z,5.93
2023-05-05T03:05:28.557Z,6.43
2023-05-05T03:06:36.439Z,6.82
2023-05-05T03:07:43.017Z,5.63
2023-05-05T03:08:58.546Z,5.30
2023-05-05T03:10:18.736Z,6.68
2023-05-05T03:11:37.184Z,6.30
2023-05-05T03:12:51.145Z,5.70
2023-05-05T03:14:08.993Z,6.45
2023-05-05T03:15:13.760Z,5.97
2023-05-05T03:16:18.604Z,6.03
2023-05-05T03:17:23.974Z,6.85
2023-05-05T03:18:29.235Z,6.28
2023-05-05T03:19:37.973Z,5.47
2023-05-05T03:20:40.858Z,5.82
2023-05-05T03:21:45.852Z,5.90
2023-05-05T03:22:49.287Z,6.40
2023-05-05T03:23:52.007Z,6.40
2023-05-05T03:24:57.378Z,6.50
2023-05-05T03:26:00.253Z,6.88
2023-05-05T03:27:07.213Z,6.80
2023-05-05T03:28:14.650Z,6.53
2023-05-05T03:29:17.515Z,6.00
2023-05-05T03:30:20.265Z,6.90
2023-05-05T03:31:25.425Z,6.55
2023-05-05T03:32:31.901Z,6.80
2023-05-05T03:33:34.312Z,7.13
2023-05-05T03:34:37.835Z,6.25
2023-05-05T03:35:41.565Z,6.40
2023-05-05T03:36:47.425Z,6.32
2023-05-05T03:37:51.339Z,7.32
2023-05-05T03:38:54.255Z,7.18
2023-05-05T03:39:57.764Z,6.80
2023-05-05T03:41:05.297Z,6.45
2023-05-05T03:42:08.126Z,6.28
2023-05-05T03:43:11.647Z,6.35
2023-05-05T03:44:14.042Z,6.82
2023-05-05T03:45:17.225Z,6.38
2023-05-05T03:46:19.564Z,6.13
2023-05-05T03:47:24.560Z,6.65
2023-05-05T03:48:27.431Z,6.38
2023-05-05T03:49:30.087Z,6.15
2023-05-05T03:50:33.237Z,7.38
2023-05-05T03:51:36.458Z,6.60
2023-05-05T03:52:38.828Z,5.95
2023-05-05T03:53:41.532Z,5.63
2023-05-05T03:54:46.102Z,6.57
2023-05-05T03:55:48.541Z,6.68
2023-05-05T03:56:50.928Z,6.68
2023-05-05T03:57:53.244Z,7.28
2023-05-05T03:58:55.792Z,6.13
2023-05-05T03:59:58.101Z,6.53
2023-05-05T04:01:01.834Z,7.35
2023-05-05T04:02:04.527Z,7.05
2023-05-05T04:03:06.999Z,7.00
2023-05-05T04:04:13.133Z,6.40
2023-05-05T04:05:15.938Z,7.15
2023-05-05T04:06:18.616Z,6.05
2023-05-05T04:07:23.635Z,7.22
2023-05-05T04:08:25.897Z,6.68
2023-05-05T04:09:28.128Z,6.50
2023-05-05T04:10:30.728Z,6.75
2023-05-05T04:11:33.482Z,7.22
2023-05-05T04:12:36.303Z,7.10
2023-05-05T04:13:38.598Z,6.82
2023-05-05T04:14:40.892Z,6.43
2023-05-05T04:15:47.130Z,6.43
2023-05-05T04:16:50.533Z,6.53
2023-05-05T04:17:53.570Z,6.57
2023-05-05T04:18:56.101Z,6.63
2023-05-05T04:19:58.525Z,7.13
2023-05-05T04:21:01.213Z,6.22
2023-05-05T04:22:03.536Z,7.05
2023-05-05T04:23:07.126Z,7.53
2023-05-05T04:24:09.803Z,6.72
2023-05-05T04:25:12.285Z,7.32
2023-05-05T04:26:14.688Z,7.05
2023-05-05T04:27:16.941Z,7.47
2023-05-05T04:28:21.840Z,7.35
2023-05-05T04:29:24.435Z,6.70
2023-05-05T04:30:26.739Z,7.28
2023-05-05T04:31:29.303Z,7.57
2023-05-05T04:32:31.880Z,7.40
2023-05-05T04:33:34.763Z,7.93
2023-05-05T04:34:37.233Z,7.07
2023-05-05T04:35:39.975Z,7.55
2023-05-05T04:36:42.837Z,7.55
2023-05-05T04:37:46.095Z,7.35
2023-05-05T04:38:48.755Z,7.85
2023-05-05T04:39:51.134Z,7.40
2023-05-05T04:40:53.374Z,8.27
2023-05-05T04:41:55.853Z,8.05
2023-05-05T04:42:58.065Z,8.05
2023-05-05T04:44:00.782Z,9.02
2023-05-05T04:45:03.846Z,8.10
2023-05-05T04:46:07.162Z,7.60
2023-05-05T04:47:13.878Z,7.35
2023-05-05T04:48:16.860Z,7.75
2023-05-05T04:49:19.243Z,7.38
2023-05-05T04:50:21.687Z,8.10
2023-05-05T04:51:23.956Z,8.07
2023-05-05T04:52:26.357Z,7.90
2023-05-05T04:53:28.661Z,8.80
2023-05-05T04:54:30.864Z,8.40
2023-05-05T04:55:33.593Z,7.90
2023-05-05T04:56:36.091Z,7.97
2023-05-05T04:57:38.350Z,8.00
2023-05-05T04:58:40.764Z,8.65
2023-05-05T04:59:42.973Z,8.75
2023-05-05T05:00:45.201Z,8.52
2023-05-05T05:01:47.805Z,8.57
2023-05-05T05:02:50.074Z,7.63
2023-05-05T05:03:52.735Z,8.98
2023-05-05T05:04:54.995Z,8.45
2023-05-05T05:05:57.477Z,8.52
2023-05-05T05:07:01.566Z,9.10
2023-05-05T05:08:04.025Z,8.15
2023-05-05T05:09:06.194Z,8.18
2023-05-05T05:10:09.071Z,9.00
2023-05-05T05:11:12.174Z,8.35
2023-05-05T05:12:14.386Z,8.38
2023-05-05T05:13:16.644Z,8.43
2023-05-05T05:14:18.943Z,8.30
2023-05-05T05:15:21.265Z,8.73
2023-05-05T05:16:25.365Z,8.25
2023-05-05T05:17:30.195Z,8.52
2023-05-05T05:18:33.026Z,9.25
2023-05-05T05:19:35.206Z,9.15
2023-05-05T05:20:38.066Z,9.00
2023-05-05T05:21:40.465Z,9.00
2023-05-05T05:22:42.878Z,8.88
2023-05-05T05:23:49.666Z,9.00
2023-05-05T05:24:52.335Z,9.13
2023-05-05T05:25:55.898Z,8.95
2023-05-05T05:26:58.661Z,9.00
2023-05-05T05:28:10.235Z,8.95
2023-05-05T05:29:20.085Z,9.10
2023-05-05T05:30:23.529Z,8.48
2023-05-05T05:31:25.848Z,9.68
2023-05-05T05:32:30.664Z,9.43
2023-05-05T05:33:33.150Z,9.57
2023-05-05T05:34:35.790Z,10.15
2023-05-05T05:35:39.589Z,8.63
2023-05-05T05:36:41.941Z,9.98
2023-05-05T05:37:44.271Z,10.10
2023-05-05T05:38:46.708Z,9.85
2023-05-05T05:39:52.327Z,8.95
2023-05-05T05:40:56.710Z,8.88
2023-05-05T05:42:00.631Z,9.23
2023-05-05T05:43:03.226Z,9.00
2023-05-05T05:44:06.352Z,9.88
2023-05-05T05:45:09.304Z,10.20
2023-05-05T05:46:12.745Z,9.80
2023-05-05T05:47:17.045Z,9.57
2023-05-05T05:48:21.446Z,9.65
2023-05-05T05:49:23.685Z,10.05
2023-05-05T05:50:28.601Z,9.68
2023-05-05T05:51:32.060Z,10.05
2023-05-05T05:52:36.361Z,9.27
2023-05-05T05:53:40.646Z,9.95
2023-05-05T05:54:44.320Z,9.63
2023-05-05T05:55:47.007Z,9.60
2023-05-05T05:56:51.244Z,10.57
2023-05-05T05:57:53.564Z,9.77
2023-05-05T05:58:56.202Z,11.15
2023-05-05T06:00:01.627Z,9.73
2023-05-05T06:01:14.126Z,9.98
2023-05-05T06:02:16.740Z,10.93
2023-05-05T06:03:19.617Z,10.05
2023-05-05T06:04:22.534Z,10.18
2023-05-05T06:05:24.781Z,10.45
2023-05-05T06:06:28.025Z,9.73
2023-05-05T06:07:30.264Z,10.43
2023-05-05T06:08:32.898Z,9.93
2023-05-05T06:09:35.457Z,10.27
2023-05-05T06:10:37.751Z,9.98
2023-05-05T06:11:44.734Z,11.02
2023-05-05T06:12:46.967Z,10.30
2023-05-05T06:13:49.231Z,10.52
2023-05-05T06:14:51.894Z,10.90
2023-05-05T06:15:54.646Z,10.05
2023-05-05T06:16:56.927Z,9.35
2023-05-05T06:18:01.866Z,9.90
2023-05-05T06:19:09.411Z,9.43
2023-05-05T06:20:13.932Z,10.93
2023-05-05T06:21:16.534Z,9.82
2023-05-05T06:22:18.796Z,10.77
2023-05-05T06:23:21.277Z,10.15
2023-05-05T06:24:29.145Z,10.32
2023-05-05T06:25:31.944Z,10.48
2023-05-05T06:26:34.505Z,10.10
2023-05-05T06:27:36.698Z,10.18
2023-05-05T06:28:39.330Z,10.52
2023-05-05T06:29:41.709Z,10.82
2023-05-05T06:30:44.259Z,10.55
2023-05-05T06:31:47.112Z,10.85
2023-05-05T06:32:49.694Z,10.90
2023-05-05T06:33:52.168Z,10.60
2023-05-05T06:34:54.341Z,11.02
2023-05-05T06:35:56.515Z,10.88
2023-05-05T06:36:58.888Z,10.60
2023-05-05T06:38:01.151Z,10.23
2023-05-05T06:39:03.900Z,10.43
2023-05-05T06:40:07.947Z,11.30
2023-05-05T06:41:10.581Z,10.75
2023-05-05T06:42:12.967Z,10.20
2023-05-05T06:43:15.246Z,10.50
2023-05-05T06:44:22.157Z,10.65
2023-05-05T06:45:24.383Z,10.55
2023-05-05T06:46:26.644Z,11.18
2023-05-05T06:47:28.906Z,10.18
2023-05-05T06:48:31.296Z,9.85
2023-05-05T06:49:33.935Z,10.75
2023-05-05T06:50:36.503Z,10.73
2023-05-05T06:51:40.560Z,10.05
2023-05-05T06:52:44.421Z,9.93
2023-05-05T06:53:46.886Z,10.30
2023-05-05T06:54:49.237Z,10.25
2023-05-05T06:55:51.550Z,9.73
2023-05-05T06:56:53.787Z,10.18
2023-05-05T06:57:56.136Z,10.18
2023-05-05T06:58:58.540Z,10.23
2023-05-05T07:00:00.925Z,11.05
2023-05-05T07:01:04.082Z,10.70
2023-05-05T07:02:06.560Z,9.45
2023-05-05T07:03:09.150Z,9.55
2023-05-05T07:04:11.410Z,9.75
2023-05-05T07:05:14.126Z,10.30
2023-05-05T07:06:16.338Z,10.63
2023-05-05T07:07:18.509Z,10.15
2023-05-05T07:08:20.937Z,9.93
2023-05-05T07:09:23.107Z,9.85
2023-05-05T07:10:26.297Z,10.77
2023-05-05T07:11:28.517Z,10.45
2023-05-05T07:12:33.869Z,9.88
2023-05-05T07:13:38.339Z,9.55
2023-05-05T07:14:40.907Z,10.10
2023-05-05T07:15:49.414Z,10.00
2023-05-05T07:16:51.745Z,9.90
2023-05-05T07:17:54.110Z,9.68
2023-05-05T07:18:56.855Z,9.88
2023-05-05T07:19:59.211Z,10.00
2023-05-05T07:21:03.020Z,10.75
2023-05-05T07:22:06.323Z,9.85
2023-05-05T07:23:08.602Z,10.13
2023-05-05T07:24:10.796Z,10.05
2023-05-05T07:25:13.334Z,9.75
2023-05-05T07:26:15.935Z,9.40
2023-05-05T07:27:18.130Z,10.05
2023-05-05T07:28:22.333Z,9.48
2023-05-05T07:29:24.556Z,9.27
2023-05-05T07:30:26.767Z,9.25
2023-05-05T07:31:29.454Z,9.57
2023-05-05T07:32:31.846Z,9.85
2023-05-05T07:33:34.076Z,8.75
2023-05-05T07:34:37.937Z,8.80
2023-05-05T07:35:40.568Z,9.30
2023-05-05T07:36:43.000Z,9.60
2023-05-05T07:37:46.215Z,8.75
2023-05-05T07:38:48.454Z,9.13
2023-05-05T07:39:50.794Z,9.05
2023-05-05T07:40:52.985Z,9.48
2023-05-05T07:41:55.388Z,8.55
2023-05-05T07:42:57.562Z,9.15
2023-05-05T07:44:01.186Z,9.02
2023-05-05T07:45:04.730Z,8.75
2023-05-05T07:46:07.356Z,9.55
2023-05-05T07:47:09.648Z,9.25
2023-05-05T07:48:12.287Z,9.18
2023-05-05T07:49:14.692Z,8.90
2023-05-05T07:50:17.122Z,9.43
2023-05-05T07:51:19.332Z,9.00
2023-05-05T07:52:30.091Z,8.98
2023-05-05T07:53:41.423Z,9.10
2023-05-05T07:54:45.221Z,9.15
2023-05-05T07:55:47.677Z,9.20
2023-05-05T07:56:50.038Z,9.23
2023-05-05T07:57:52.229Z,8.73
2023-05-05T07:58:55.375Z,8.95
2023-05-05T07:59:57.760Z,8.75
2023-05-05T08:01:01.308Z,8.43
2023-05-05T08:02:03.914Z,8.93
2023-05-05T08:03:08.303Z,8.70
2023-05-05T08:04:12.334Z,8.93
2023-05-05T08:05:14.608Z,8.10
2023-05-05T08:06:21.781Z,8.18
2023-05-05T08:07:24.004Z,8.50
2023-05-05T08:08:26.963Z,8.27
2023-05-05T08:09:29.272Z,7.97
2023-05-05T08:10:31.500Z,8.73
2023-05-05T08:11:33.906Z,9.48
2023-05-05T08:12:37.063Z,8.73
2023-05-05T08:13:39.287Z,8.27
2023-05-05T08:14:42.677Z,8.68
2023-05-05T08:15:45.453Z,8.07
2023-05-05T08:16:47.765Z,8.75
2023-05-05T08:17:52.284Z,8.02
2023-05-05T08:18:54.582Z,7.43
2023-05-05T08:20:07.431Z,8.93
2023-05-05T08:21:10.827Z,8.50
2023-05-05T08:22:13.060Z,8.90
2023-05-05T08:23:15.402Z,8.38
2023-05-05T08:24:17.603Z,8.60
2023-05-05T08:25:19.801Z,7.82
2023-05-05T08:26:22.858Z,7.65
2023-05-05T08:27:25.088Z,7.50
2023-05-05T08:28:27.252Z,7.88
2023-05-05T08:29:29.512Z,7.88
2023-05-05T08:30:31.908Z,8.15
2023-05-05T08:31:37.142Z,8.20
2023-05-05T08:32:39.412Z,7.47
2023-05-05T08:33:41.754Z,8.60
2023-05-05T08:34:46.279Z,8.00
2023-05-05T08:35:49.409Z,7.80
2023-05-05T08:36:51.985Z,8.10
2023-05-05T08:37:55.441Z,7.85
2023-05-05T08:39:00.117Z,8.07
2023-05-05T08:40:02.471Z,7.63
2023-05-05T08:41:08.362Z,7.88
2023-05-05T08:42:12.332Z,8.07
2023-05-05T08:43:20.188Z,7.68
2023-05-05T08:44:22.580Z,7.72
2023-05-05T08:45:25.542Z,7.75
2023-05-05T08:46:28.491Z,8.52
2023-05-05T08:47:32.275Z,6.93
2023-05-05T08:48:36.622Z,7.22
2023-05-05T08:49:48.089Z,7.90
2023-05-05T08:50:57.401Z,8.25
2023-05-05T08:52:04.949Z,7.95
2023-05-05T08:53:11.852Z,7.35
2023-05-05T08:54:19.982Z,7.25
2023-05-05T08:55:25.501Z,7.15
2023-05-05T08:56:39.916Z,7.30
2023-05-05T08:57:56.145Z,7.78
2023-05-05T08:58:59.575Z,7.65
2023-05-05T09:00:04.206Z,7.28
2023-05-05T09:01:07.693Z,7.22
2023-05-05T09:02:10.613Z,7.30
2023-05-05T09:03:13.582Z,7.40
2023-05-05T09:04:16.787Z,7.45
2023-05-05T09:05:18.948Z,7.05
2023-05-05T09:06:22.376Z,9.60
2023-05-05T09:07:25.119Z,8.20
2023-05-05T09:08:28.329Z,7.40
2023-05-05T09:09:30.883Z,6.85
2023-05-05T09:10:34.101Z,6.70
2023-05-05T09:11:37.578Z,6.30
2023-05-05T09:12:42.899Z,7.60
2023-05-05T09:13:45.170Z,7.47
2023-05-05T09:14:47.732Z,6.85
2023-05-05T09:15:50.114Z,7.00
2023-05-05T09:16:52.373Z,7.10
2023-05-05T09:17:57.745Z,6.43
2023-05-05T09:19:04.517Z,6.30
2023-05-05T09:20:08.401Z,6.38
2023-05-05T09:21:24.813Z,7.57
2023-05-05T09:22:43.091Z,6.32
2023-05-05T09:24:09.118Z,6.85
2023-05-05T09:25:16.538Z,6.63
2023-05-05T09:26:18.920Z,7.03
2023-05-05T09:27:23.360Z,7.63
2023-05-05T09:28:26.037Z,7.03
2023-05-05T09:29:28.942Z,7.47
2023-05-05T09:30:31.557Z,6.78
2023-05-05T09:31:36.188Z,7.55
2023-05-05T09:32:49.014Z,7.38
2023-05-05T09:33:51.699Z,6.55
2023-05-05T09:34:59.000Z,6.63
2023-05-05T09:36:01.589Z,6.47
2023-05-05T09:37:04.118Z,7.22
2023-05-05T09:38:15.214Z,6.50
2023-05-05T09:39:20.193Z,7.30
2023-05-05T09:40:22.717Z,6.47
2023-05-05T09:41:42.341Z,6.80
2023-05-05T09:42:45.074Z,6.65
2023-05-05T09:43:52.489Z,6.93
2023-05-05T09:44:54.796Z,7.07
2023-05-05T09:46:07.797Z,7.63
2023-05-05T09:47:26.047Z,7.00
2023-05-05T09:48:32.561Z,6.45
2023-05-05T09:49:36.244Z,7.45
2023-05-05T09:50:44.768Z,6.30
2023-05-05T09:51:48.149Z,6.97
2023-05-05T09:53:01.866Z,6.22
2023-05-05T09:54:04.130Z,6.00
2023-05-05T09:55:08.184Z,6.57
2023-05-05T09:56:10.533Z,6.18
2023-05-05T09:57:33.556Z,6.15
2023-05-05T09:58:36.301Z,6.43
2023-05-05T09:59:39.040Z,6.05
2023-05-05T10:00:41.573Z,6.65
2023-05-05T10:01:44.250Z,6.53
2023-05-05T10:02:46.857Z,6.43
2023-05-05T10:03:52.534Z,6.60
2023-05-05T10:05:07.373Z,6.60
2023-05-05T10:06:09.832Z,5.78
2023-05-05T10:07:23.248Z,6.60
2023-05-05T10:08:28.023Z,6.45
2023-05-05T10:09:31.914Z,6.38
2023-05-05T10:10:35.232Z,6.00
2023-05-05T10:11:37.528Z,6.15
2023-05-05T10:12:40.363Z,6.72
2023-05-05T10:13:43.015Z,6.32
2023-05-05T10:14:45.777Z,6.50
2023-05-05T10:15:51.498Z,6.25
2023-05-05T10:16:55.532Z,5.93
2023-05-05T10:18:07.460Z,6.07
2023-05-05T10:19:14.321Z,5.85
2023-05-05T10:20:18.876Z,5.63
2023-05-05T10:21:21.756Z,6.28
2023-05-05T10:22:26.171Z,6.07
2023-05-05T10:23:36.112Z,5.88
2023-05-05T10:24:55.343Z,6.03
2023-05-05T10:26:07.379Z,6.28
2023-05-05T10:27:19.090Z,5.88
2023-05-05T10:28:32.536Z,6.38
2023-05-05T10:30:04.455Z,6.60
2023-05-05T10:31:24.489Z,6.10
2023-05-05T10:32:56.836Z,5.55
2023-05-05T10:36:38.658Z,5.32
2023-05-05T10:37:41.691Z,5.97
2023-05-05T10:38:46.609Z,5.95
2023-05-05T10:39:50.599Z,5.07
2023-05-05T10:40:53.230Z,6.13
2023-05-05T10:41:55.659Z,6.07
2023-05-05T10:42:59.321Z,5.80
2023-05-05T10:44:03.765Z,5.55
2023-05-05T10:45:07.821Z,5.40
2023-05-05T10:46:11.256Z,5.43
2023-05-05T10:47:13.822Z,5.55
2023-05-05T10:48:25.593Z,5.80
2023-05-05T10:50:04.017Z,5.55
2023-05-05T10:51:39.558Z,5.63
2023-05-05T10:53:20.666Z,5.95
2023-05-05T10:54:38.531Z,5.20
2023-05-05T10:55:57.286Z,4.97
2023-05-05T10:57:02.801Z,4.80
2023-05-05T10:58:05.025Z,5.32
2023-05-05T10:59:38.669Z,5.80
2023-05-05T11:00:41.369Z,4.90
2023-05-05T11:01:43.837Z,5.07
2023-05-05T11:02:46.277Z,5.60
2023-05-05T11:03:48.785Z,5.38
2023-05-05T11:05:21.549Z,4.68
2023-05-05T11:06:24.042Z,4.82
2023-05-05T11:07:27.689Z,5.32
2023-05-05T11:08:34.051Z,4.57
2023-05-05T11:09:53.835Z,4.93
2023-05-05T11:10:56.198Z,4.80
2023-05-05T11:12:03.498Z,5.07
2023-05-05T11:13:08.667Z,4.90
2023-05-05T11:14:22.369Z,4.60
2023-05-05T11:15:27.339Z,4.22
2023-05-05T11:16:43.559Z,4.70
2023-05-05T11:17:47.783Z,4.25
2023-05-05T11:18:50.324Z,4.22
2023-05-05T11:19:53.367Z,4.07
2023-05-05T11:20:58.348Z,4.50
2023-05-05T11:22:04.167Z,4.15
2023-05-05T11:23:06.608Z,4.82
2023-05-05T11:24:29.277Z,4.53
2023-05-05T11:25:34.501Z,4.75
2023-05-05T11:26:51.478Z,4.38
2023-05-05T11:28:10.691Z,4.80
2023-05-05T11:29:13.082Z,5.05
2023-05-05T11:30:15.630Z,5.15
2023-05-05T11:31:19.226Z,5.13
2023-05-05T11:32:21.498Z,3.97
2023-05-05T11:33:31.851Z,4.65
2023-05-05T11:34:34.377Z,4.90
2023-05-05T11:35:55.568Z,5.22
2023-05-05T11:37:03.427Z,4.90
2023-05-05T11:38:07.993Z,4.38
2023-05-05T11:39:24.166Z,4.65
2023-05-05T11:40:36.957Z,3.92
2023-05-05T11:42:06.547Z,4.80
2023-05-05T11:43:12.125Z,4.50
2023-05-05T11:44:16.625Z,4.47
2023-05-05T11:45:21.740Z,5.40
2023-05-05T11:46:24.035Z,4.40
2023-05-05T11:47:28.270Z,4.75
2023-05-05T11:48:30.634Z,4.20
2023-05-05T11:49:35.376Z,4.18
2023-05-05T11:50:37.963Z,4.40
2023-05-05T11:51:40.396Z,4.85
2023-05-05T11:52:43.018Z,4.20
2023-05-05T11:53:49.716Z,3.83
2023-05-05T11:54:52.000Z,4.68
2023-05-05T11:56:06.966Z,4.75
2023-05-05T11:57:09.389Z,4.57
2023-05-05T11:58:18.708Z,4.45
2023-05-05T11:59:21.696Z,4.55
2023-05-05T12:00:33.916Z,3.92
2023-05-05T12:01:42.878Z,4.70
2023-05-05T12:02:45.423Z,4.07
2023-05-05T12:03:48.122Z,4.32
2023-05-05T12:04:51.317Z,4.10
2023-05-05T12:05:56.719Z,3.95
2023-05-05T12:07:00.039Z,5.03
2023-05-05T12:08:02.302Z,5.18
2023-05-05T12:09:04.710Z,4.20
2023-05-05T12:10:07.859Z,4.80
2023-05-05T12:11:11.695Z,4.20
2023-05-05T12:12:15.302Z,3.90
2023-05-05T12:13:21.173Z,4.45
2023-05-05T12:14:25.610Z,4.75
2023-05-05T12:15:29.700Z,4.25
2023-05-05T12:16:31.991Z,4.05
2023-05-05T12:17:42.865Z,4.10
2023-05-05T12:18:45.429Z,3.80
2023-05-05T12:19:54.704Z,3.67
2023-05-05T12:20:56.961Z,4.22
2023-05-05T12:22:03.127Z,3.95
2023-05-05T12:23:05.661Z,4.03
2023-05-05T12:24:13.174Z,4.28
2023-05-05T12:25:16.337Z,3.90
2023-05-05T12:26:26.432Z,4.38
2023-05-05T12:27:29.256Z,3.78
2023-05-05T12:28:46.393Z,4.28
2023-05-05T12:29:49.266Z,4.32
2023-05-05T12:31:00.740Z,4.80
2023-05-05T12:32:04.250Z,4.53
2023-05-05T12:33:09.094Z,4.05
2023-05-05T12:34:12.015Z,3.80
2023-05-05T12:35:14.710Z,3.38
2023-05-05T12:36:17.075Z,4.20
2023-05-05T12:37:20.946Z,3.90
2023-05-05T12:38:23.377Z,3.78
2023-05-05T12:39:36.269Z,4.20
2023-05-05T12:40:51.778Z,4.00
2023-05-05T12:42:05.249Z,3.75
2023-05-05T12:43:07.880Z,3.92
2023-05-05T12:44:10.191Z,3.60
2023-05-05T12:45:17.688Z,5.03
2023-05-05T12:46:20.094Z,3.60
2023-05-05T12:47:32.870Z,3.97
2023-05-05T12:48:38.036Z,3.83
2023-05-05T12:49:50.977Z,3.58
2023-05-05T12:50:53.268Z,3.63
2023-05-05T12:51:56.991Z,3.80
2023-05-05T12:52:59.236Z,3.90
2023-05-05T12:54:12.031Z,4.25
2023-05-05T12:55:14.517Z,4.18
2023-05-05T12:56:36.487Z,3.72
2023-05-05T12:57:39.625Z,3.58
2023-05-05T12:58:50.821Z,3.70
2023-05-05T12:59:53.748Z,3.97
2023-05-05T13:01:09.103Z,4.00
2023-05-05T13:02:11.430Z,4.90
2023-05-05T13:03:20.313Z,4.07
2023-05-05T13:04:24.087Z,3.95
2023-05-05T13:05:33.524Z,3.90
2023-05-05T13:06:36.196Z,4.05
2023-05-05T13:07:50.811Z,3.75
2023-05-05T13:08:53.312Z,3.75
2023-05-05T13:10:10.803Z,4.00
2023-05-05T13:11:13.669Z,3.47
2023-05-05T13:12:18.196Z,3.85
2023-05-05T13:13:20.499Z,3.80
2023-05-05T13:14:23.401Z,3.92
2023-05-05T13:15:26.193Z,3.42
2023-05-05T13:16:28.576Z,3.80
2023-05-05T13:17:33.353Z,3.55
2023-05-05T13:18:49.679Z,3.72
2023-05-05T13:19:52.232Z,3.50
2023-05-05T13:20:54.561Z,3.50
2023-05-05T13:21:58.113Z,3.58
2023-05-05T13:23:00.360Z,3.63
2023-05-05T13:24:18.913Z,3.53
2023-05-05T13:25:25.008Z,3.42
2023-05-05T13:26:28.291Z,3.80
2023-05-05T13:27:30.537Z,3.97
2023-05-05T13:28:32.755Z,4.10
2023-05-05T13:29:35.213Z,3.60
2023-05-05T13:30:37.425Z,3.22
2023-05-05T13:31:39.982Z,3.80
2023-05-05T13:32:42.512Z,3.45
2023-05-05T13:33:44.984Z,3.88
2023-05-05T13:34:47.471Z,4.50
2023-05-05T13:35:49.746Z,3.88
2023-05-05T13:36:52.119Z,3.60
2023-05-05T13:37:54.574Z,3.88
2023-05-05T13:38:56.889Z,4.13
2023-05-05T13:40:00.575Z,3.58
2023-05-05T13:41:03.119Z,3.40
2023-05-05T13:42:05.486Z,3.53
2023-05-05T13:43:07.882Z,3.63
2023-05-05T13:44:10.292Z,4.03
2023-05-05T13:45:14.344Z,3.88
2023-05-05T13:46:19.584Z,3.58
2023-05-05T13:47:22.524Z,3.38
2023-05-05T13:48:25.049Z,3.22
2023-05-05T13:49:27.287Z,4.25
2023-05-05T13:50:29.862Z,3.22
2023-05-05T13:51:32.981Z,3.15
2023-05-05T13:52:35.613Z,3.50
2023-05-05T13:53:39.895Z,3.20
2023-05-05T13:54:42.466Z,3.30
2023-05-05T13:55:45.020Z,7.78
2023-05-05T13:56:47.289Z,5.38
2023-05-05T13:57:49.856Z,3.42
2023-05-05T13:58:52.430Z,3.60
2023-05-05T13:59:54.619Z,3.70
2023-05-05T14:00:57.030Z,3.60
2023-05-05T14:02:00.935Z,3.75
2023-05-05T14:03:03.278Z,3.20
2023-05-05T14:04:06.090Z,3.50
2023-05-05T14:05:09.410Z,3.33
2023-05-05T14:06:11.964Z,3.47
2023-05-05T14:07:14.405Z,3.15
2023-05-05T14:08:18.132Z,3.67
2023-05-05T14:09:20.594Z,3.53
2023-05-05T14:10:22.992Z,3.92
2023-05-05T14:11:25.201Z,3.63
2023-05-05T14:12:27.979Z,3.70
2023-05-05T14:13:30.282Z,3.40
2023-05-05T14:14:32.498Z,3.42
2023-05-05T14:15:34.713Z,3.53
2023-05-05T14:16:36.936Z,3.35
2023-05-05T14:17:39.475Z,3.88
2023-05-05T14:18:42.076Z,3.90
2023-05-05T14:19:44.633Z,3.85
2023-05-05T14:20:47.016Z,4.18
2023-05-05T14:21:49.209Z,4.15
2023-05-05T14:22:52.327Z,3.60
2023-05-05T14:23:54.651Z,3.47
2023-05-05T14:24:57.466Z,4.20
2023-05-05T14:25:59.752Z,4.32
2023-05-05T14:27:04.425Z,3.28
2023-05-05T14:28:07.177Z,3.53
2023-05-05T14:29:09.905Z,3.22
2023-05-05T14:30:12.736Z,3.38
2023-05-05T14:31:15.078Z,3.25
2023-05-05T14:32:17.334Z,3.40
2023-05-05T14:33:19.742Z,3.88